Time;durP1;ratioP1;P1;durP2;ratioP2;P2;SDS_P1;SDS_P2;PMS_P1;PMS_P2;Temp;Humidity;BMP_temperature;BMP_pressure;BME280_temperature;BME280_humidity;BME280_pressure;Samples;Min_cycle;Max_cycle;Signal;HPM_P1;HPM_P2
2021/11/28 00:02:12;;;;;;;1.27;1.17;;;;;;;;;;5076612;28;20608;-73
2021/11/28 00:04:40;;;;;;;0.20;0.20;;;;;;;;;;5075671;28;20210;-69
2021/11/28 00:07:11;;;;;;;0.23;0.23;;;;;;;;;;5076592;28;20586;-74
2021/11/28 00:09:45;;;;;;;0.17;0.17;;;;;;;;;;5075993;28;20218;-73
2021/11/28 00:12:24;;;;;;;0.00;0.00;;;;;;;;;;5073861;28;20209;-73
2021/11/28 00:14:55;;;;;;;0.87;0.87;;;;;;;;;;5076433;28;20682;-72
2021/11/28 00:17:24;;;;;;;0.00;0.00;;;;;;;;;;5076603;28;20255;-72
2021/11/28 00:19:51;;;;;;;0.00;0.00;;;;;;;;;;5074507;28;20825;-73
2021/11/28 00:22:19;;;;;;;2.00;1.50;;;;;;;;;;5075673;28;20201;-74
2021/11/28 00:24:46;;;;;;;0.00;0.00;;;;;;;;;;5075890;28;20679;-74
2021/11/28 00:27:14;;;;;;;0.30;0.30;;;;;;;;;;5077066;28;20247;-74
2021/11/28 00:29:41;;;;;;;0.00;0.00;;;;;;;;;;5075881;28;20615;-73
2021/11/28 00:32:09;;;;;;;0.00;0.00;;;;;;;;;;5075107;28;20683;-72
2021/11/28 00:34:38;;;;;;;0.00;0.00;;;;;;;;;;5076395;28;22396;-71
2021/11/28 00:37:06;;;;;;;0.57;0.57;;;;;;;;;;5074557;28;20198;-73
2021/11/28 00:39:33;;;;;;;0.40;0.40;;;;;;;;;;5075106;28;20205;-74
2021/11/28 00:42:00;;;;;;;0.27;0.27;;;;;;;;;;5076675;28;20205;-72
2021/11/28 00:44:28;;;;;;;0.27;0.27;;;;;;;;;;5077177;28;20561;-73
2021/11/28 00:46:55;;;;;;;1.10;0.60;;;;;;;;;;5077099;28;20206;-74
2021/11/28 00:49:25;;;;;;;0.00;0.00;;;;;;;;;;5076866;28;20323;-72
2021/11/28 00:51:56;;;;;;;0.23;0.23;;;;;;;;;;5077179;28;20198;-72
2021/11/28 00:54:24;;;;;;;1.30;0.93;;;;;;;;;;5076039;28;20259;-74
2021/11/28 00:56:52;;;;;;;2.30;2.10;;;;;;;;;;5075804;28;20215;-72
2021/11/28 00:59:19;;;;;;;0.00;0.00;;;;;;;;;;5076446;28;20651;-73
2021/11/28 01:01:47;;;;;;;1.20;0.83;;;;;;;;;;5074212;28;20237;-72
2021/11/28 01:04:14;;;;;;;0.10;0.10;;;;;;;;;;5075697;28;20206;-73
2021/11/28 01:06:43;;;;;;;1.03;1.03;;;;;;;;;;5075968;28;20209;-72
2021/11/28 01:09:12;;;;;;;0.23;0.23;;;;;;;;;;5075752;28;20586;-72
2021/11/28 01:11:39;;;;;;;0.20;0.20;;;;;;;;;;5074728;28;20215;-73
2021/11/28 01:14:07;;;;;;;0.00;0.00;;;;;;;;;;5076919;28;20211;-71
2021/11/28 01:16:35;;;;;;;0.00;0.00;;;;;;;;;;5074880;28;20195;-72
2021/11/28 01:19:03;;;;;;;0.20;0.20;;;;;;;;;;5074215;28;20206;-73
2021/11/28 01:21:31;;;;;;;0.00;0.00;;;;;;;;;;5073479;28;20217;-73
2021/11/28 01:23:58;;;;;;;1.60;1.13;;;;;;;;;;5076777;28;20206;-73
2021/11/28 01:26:28;;;;;;;0.67;0.67;;;;;;;;;;5075298;28;20210;-71
2021/11/28 01:28:55;;;;;;;0.00;0.00;;;;;;;;;;5076430;28;20228;-74
2021/11/28 01:31:23;;;;;;;0.67;0.67;;;;;;;;;;5078911;28;20667;-73
2021/11/28 01:33:51;;;;;;;0.63;0.50;;;;;;;;;;5078302;28;20198;-71
2021/11/28 01:36:18;;;;;;;0.20;0.20;;;;;;;;;;5079344;28;20202;-72
2021/11/28 01:38:46;;;;;;;2.43;1.77;;;;;;;;;;5078304;28;20221;-71
2021/11/28 01:41:13;;;;;;;0.87;0.87;;;;;;;;;;5080539;28;20203;-71
2021/11/28 01:43:43;;;;;;;0.83;0.83;;;;;;;;;;5078639;28;20209;-71
2021/11/28 01:46:10;;;;;;;0.00;0.00;;;;;;;;;;5078568;28;20199;-70
2021/11/28 01:48:38;;;;;;;0.00;0.00;;;;;;;;;;5076610;28;20271;-71
2021/11/28 01:51:06;;;;;;;0.43;0.43;;;;;;;;;;5078387;28;20214;-71
2021/11/28 01:53:33;;;;;;;0.77;0.77;;;;;;;;;;5079403;28;20220;-71
2021/11/28 01:56:01;;;;;;;0.87;0.43;;;;;;;;;;5079731;28;20650;-70
2021/11/28 01:58:28;;;;;;;0.60;0.47;;;;;;;;;;5078962;28;20876;-69
2021/11/28 02:00:58;;;;;;;1.70;0.57;;;;;;;;;;5077271;28;20230;-72
2021/11/28 02:03:26;;;;;;;0.00;0.00;;;;;;;;;;5077955;28;20210;-70
2021/11/28 02:05:54;;;;;;;0.20;0.20;;;;;;;;;;5078811;28;20218;-70
2021/11/28 02:08:22;;;;;;;0.27;0.27;;;;;;;;;;5078121;28;20674;-73
2021/11/28 02:10:50;;;;;;;0.00;0.00;;;;;;;;;;5077386;28;20207;-72
2021/11/28 02:13:21;;;;;;;0.00;0.00;;;;;;;;;;5078816;28;21280;-70
2021/11/28 02:15:49;;;;;;;0.00;0.00;;;;;;;;;;5076339;28;20672;-71
2021/11/28 02:18:18;;;;;;;0.00;0.00;;;;;;;;;;5078178;28;20206;-73
2021/11/28 02:20:47;;;;;;;0.00;0.00;;;;;;;;;;5076711;28;20191;-72
2021/11/28 02:23:15;;;;;;;0.57;0.23;;;;;;;;;;5078760;28;20567;-73
2021/11/28 02:25:43;;;;;;;0.47;0.47;;;;;;;;;;5075740;28;20209;-71
2021/11/28 02:28:10;;;;;;;0.00;0.00;;;;;;;;;;5078365;28;20553;-68
2021/11/28 02:30:38;;;;;;;0.00;0.00;;;;;;;;;;5081032;28;20207;-71
2021/11/28 02:33:06;;;;;;;0.03;0.03;;;;;;;;;;5078623;28;20199;-70
2021/11/28 02:35:34;;;;;;;0.00;0.00;;;;;;;;;;5078037;28;20276;-72
2021/11/28 02:38:05;;;;;;;0.40;0.20;;;;;;;;;;5077984;28;20546;-70
2021/11/28 02:40:34;;;;;;;0.00;0.00;;;;;;;;;;5077405;28;20204;-73
2021/11/28 02:43:01;;;;;;;0.00;0.00;;;;;;;;;;5077887;28;20206;-71
2021/11/28 02:45:30;;;;;;;0.00;0.00;;;;;;;;;;5077783;28;20210;-71
2021/11/28 02:47:58;;;;;;;0.00;0.00;;;;;;;;;;5079666;28;20213;-72
2021/11/28 02:50:26;;;;;;;0.00;0.00;;;;;;;;;;5079191;28;20602;-70
2021/11/28 02:52:54;;;;;;;0.00;0.00;;;;;;;;;;5077959;28;20198;-71
2021/11/28 02:55:24;;;;;;;1.10;0.63;;;;;;;;;;5077880;28;20203;-70
2021/11/28 02:57:51;;;;;;;0.00;0.00;;;;;;;;;;5075970;28;21345;-70
2021/11/28 03:00:19;;;;;;;0.00;0.00;;;;;;;;;;5077855;28;20238;-71
2021/11/28 03:02:46;;;;;;;0.00;0.00;;;;;;;;;;5075015;28;20211;-70
2021/11/28 03:05:14;;;;;;;0.00;0.00;;;;;;;;;;5078799;28;20698;-70
2021/11/28 03:07:42;;;;;;;0.20;0.20;;;;;;;;;;5077761;28;20206;-70
2021/11/28 03:10:29;;;;;;;0.00;0.00;;;;;;;;;;5077357;28;20229;-72
2021/11/28 03:12:58;;;;;;;0.00;0.00;;;;;;;;;;5076698;28;20194;-70
2021/11/28 03:15:25;;;;;;;0.00;0.00;;;;;;;;;;5078602;28;20190;-72
2021/11/28 03:17:52;;;;;;;0.00;0.00;;;;;;;;;;5076498;28;20202;-72
2021/11/28 03:20:20;;;;;;;0.00;0.00;;;;;;;;;;5076500;28;20206;-71
2021/11/28 03:22:47;;;;;;;0.00;0.00;;;;;;;;;;5078593;28;20202;-72
2021/11/28 03:25:15;;;;;;;0.00;0.00;;;;;;;;;;5075663;28;20297;-72
2021/11/28 03:27:44;;;;;;;0.00;0.00;;;;;;;;;;5075058;28;20678;-71
2021/11/28 03:30:13;;;;;;;0.00;0.00;;;;;;;;;;5077330;28;20226;-72
2021/11/28 03:32:40;;;;;;;0.00;0.00;;;;;;;;;;5077777;28;20198;-71
2021/11/28 03:35:08;;;;;;;0.00;0.00;;;;;;;;;;5074885;28;20214;-71
2021/11/28 03:37:36;;;;;;;0.00;0.00;;;;;;;;;;5076858;28;20221;-71
2021/11/28 03:40:05;;;;;;;0.00;0.00;;;;;;;;;;5078231;28;20221;-72
2021/11/28 03:42:33;;;;;;;0.00;0.00;;;;;;;;;;5075173;28;20209;-70
2021/11/28 03:45:00;;;;;;;0.00;0.00;;;;;;;;;;5076776;28;20215;-70
2021/11/28 03:47:29;;;;;;;0.00;0.00;;;;;;;;;;5077952;28;20198;-72
2021/11/28 03:49:57;;;;;;;0.00;0.00;;;;;;;;;;5076421;28;20237;-72
2021/11/28 03:52:24;;;;;;;0.00;0.00;;;;;;;;;;5075224;28;20694;-72
2021/11/28 03:54:52;;;;;;;0.00;0.00;;;;;;;;;;5077601;28;20279;-71
2021/11/28 03:57:19;;;;;;;0.00;0.00;;;;;;;;;;5077557;28;20201;-70
2021/11/28 03:59:46;;;;;;;0.00;0.00;;;;;;;;;;5075557;28;20198;-72
2021/11/28 04:02:14;;;;;;;0.00;0.00;;;;;;;;;;5074240;28;20203;-72
2021/11/28 04:04:43;;;;;;;0.00;0.00;;;;;;;;;;5077174;28;20643;-73
2021/11/28 04:07:10;;;;;;;0.00;0.00;;;;;;;;;;5069272;28;20229;-72
2021/11/28 04:09:38;;;;;;;0.00;0.00;;;;;;;;;;5069944;28;20234;-72
2021/11/28 04:12:06;;;;;;;0.00;0.00;;;;;;;;;;5069700;28;20207;-71
2021/11/28 04:14:33;;;;;;;0.00;0.00;;;;;;;;;;5068570;28;20202;-73
2021/11/28 04:17:01;;;;;;;0.00;0.00;;;;;;;;;;5069511;28;20578;-71
2021/11/28 04:19:28;;;;;;;0.00;0.00;;;;;;;;;;5069030;28;20228;-70
2021/11/28 04:21:57;;;;;;;0.00;0.00;;;;;;;;;;5069457;28;20683;-69
2021/11/28 04:24:25;;;;;;;0.00;0.00;;;;;;;;;;5069130;28;20209;-70
2021/11/28 04:26:52;;;;;;;0.00;0.00;;;;;;;;;;5071638;28;20295;-71
2021/11/28 04:29:19;;;;;;;0.00;0.00;;;;;;;;;;5077946;28;21114;-72
2021/11/28 04:31:48;;;;;;;0.00;0.00;;;;;;;;;;5077654;28;20206;-72
2021/11/28 04:34:15;;;;;;;0.00;0.00;;;;;;;;;;5076620;28;20292;-72
2021/11/28 04:36:43;;;;;;;0.00;0.00;;;;;;;;;;5076888;28;20226;-68
2021/11/28 04:39:12;;;;;;;0.00;0.00;;;;;;;;;;5076229;28;20199;-72
2021/11/28 04:41:40;;;;;;;0.00;0.00;;;;;;;;;;5075724;28;20202;-69
2021/11/28 04:44:07;;;;;;;0.00;0.00;;;;;;;;;;5067231;28;20213;-70
2021/11/28 04:46:35;;;;;;;0.20;0.20;;;;;;;;;;5068397;28;20355;-71
2021/11/28 04:49:03;;;;;;;0.00;0.00;;;;;;;;;;5069363;28;20218;-69
2021/11/28 04:51:30;;;;;;;0.00;0.00;;;;;;;;;;5068965;28;20206;-70
2021/11/28 04:53:58;;;;;;;0.00;0.00;;;;;;;;;;5071021;28;20224;-69
2021/11/28 04:56:27;;;;;;;0.00;0.00;;;;;;;;;;5070370;28;20198;-69
2021/11/28 04:58:54;;;;;;;0.00;0.00;;;;;;;;;;5066388;28;20202;-72
2021/11/28 05:01:22;;;;;;;0.00;0.00;;;;;;;;;;5069085;28;20237;-72
2021/11/28 05:03:49;;;;;;;0.00;0.00;;;;;;;;;;5070716;28;20221;-72
2021/11/28 05:06:17;;;;;;;0.00;0.00;;;;;;;;;;5073659;28;21118;-71
2021/11/28 05:08:44;;;;;;;0.00;0.00;;;;;;;;;;5074670;28;20210;-68
2021/11/28 05:11:12;;;;;;;0.00;0.00;;;;;;;;;;5072038;28;20244;-71
2021/11/28 05:13:41;;;;;;;0.00;0.00;;;;;;;;;;5071773;28;20686;-72
2021/11/28 05:16:08;;;;;;;0.00;0.00;;;;;;;;;;5072275;28;20206;-71
2021/11/28 05:18:36;;;;;;;0.00;0.00;;;;;;;;;;5074710;28;20206;-70
2021/11/28 05:21:03;;;;;;;0.00;0.00;;;;;;;;;;5072471;28;20582;-71
2021/11/28 05:23:31;;;;;;;0.00;0.00;;;;;;;;;;5071028;28;22023;-70
2021/11/28 05:25:58;;;;;;;0.00;0.00;;;;;;;;;;5073046;28;20225;-70
2021/11/28 05:28:25;;;;;;;0.00;0.00;;;;;;;;;;5080219;28;20569;-71
2021/11/28 05:30:54;;;;;;;0.00;0.00;;;;;;;;;;5080783;28;20222;-70
2021/11/28 05:33:22;;;;;;;0.00;0.00;;;;;;;;;;5072533;28;20697;-71
2021/11/28 05:35:49;;;;;;;0.00;0.00;;;;;;;;;;5073928;28;20678;-72
2021/11/28 05:38:16;;;;;;;0.00;0.00;;;;;;;;;;5071887;28;20213;-72
2021/11/28 05:40:44;;;;;;;0.00;0.00;;;;;;;;;;5071145;28;22521;-71
2021/11/28 05:43:11;;;;;;;0.00;0.00;;;;;;;;;;5073455;28;20206;-70
2021/11/28 05:45:39;;;;;;;0.00;0.00;;;;;;;;;;5069886;28;20240;-71
2021/11/28 05:48:08;;;;;;;0.00;0.00;;;;;;;;;;5071084;28;20198;-71
2021/11/28 05:50:35;;;;;;;0.00;0.00;;;;;;;;;;5071452;28;20237;-72
2021/11/28 05:53:03;;;;;;;0.00;0.00;;;;;;;;;;5071805;28;20367;-73
2021/11/28 05:55:30;;;;;;;0.00;0.00;;;;;;;;;;5071483;28;20210;-72
2021/11/28 05:57:58;;;;;;;0.00;0.00;;;;;;;;;;5071475;28;20229;-70
2021/11/28 06:00:25;;;;;;;0.00;0.00;;;;;;;;;;5070559;28;20733;-71
2021/11/28 06:02:53;;;;;;;0.00;0.00;;;;;;;;;;5071369;28;20206;-72
2021/11/28 06:05:22;;;;;;;0.00;0.00;;;;;;;;;;5072273;28;20827;-69
2021/11/28 06:07:49;;;;;;;0.00;0.00;;;;;;;;;;5073093;28;20307;-71
2021/11/28 06:10:17;;;;;;;0.00;0.00;;;;;;;;;;5071425;28;20697;-72
2021/11/28 06:12:44;;;;;;;0.00;0.00;;;;;;;;;;5067380;28;20213;-72
2021/11/28 06:15:12;;;;;;;0.00;0.00;;;;;;;;;;5070903;28;20207;-71
2021/11/28 06:17:39;;;;;;;0.00;0.00;;;;;;;;;;5073887;28;20194;-72
2021/11/28 06:20:07;;;;;;;0.00;0.00;;;;;;;;;;5073037;28;21077;-71
2021/11/28 06:22:36;;;;;;;0.00;0.00;;;;;;;;;;5070805;28;20213;-71
2021/11/28 06:25:05;;;;;;;0.00;0.00;;;;;;;;;;5072246;28;20201;-71
2021/11/28 06:27:32;;;;;;;0.00;0.00;;;;;;;;;;5071248;28;20295;-72
2021/11/28 06:29:59;;;;;;;0.00;0.00;;;;;;;;;;5073601;28;20234;-71
2021/11/28 06:32:27;;;;;;;0.00;0.00;;;;;;;;;;5071409;28;20828;-70
2021/11/28 06:34:55;;;;;;;0.00;0.00;;;;;;;;;;5071608;28;20570;-74
2021/11/28 06:37:22;;;;;;;0.00;0.00;;;;;;;;;;5070757;28;20210;-72
2021/11/28 06:39:51;;;;;;;0.00;0.00;;;;;;;;;;5072215;28;20214;-74
2021/11/28 06:42:18;;;;;;;0.00;0.00;;;;;;;;;;5073255;28;20202;-73
2021/11/28 06:44:46;;;;;;;0.00;0.00;;;;;;;;;;5069081;28;20202;-73
2021/11/28 06:47:13;;;;;;;0.00;0.00;;;;;;;;;;5070201;28;20210;-72
2021/11/28 06:49:41;;;;;;;0.00;0.00;;;;;;;;;;5071693;28;20190;-72
2021/11/28 06:52:09;;;;;;;0.00;0.00;;;;;;;;;;5067923;28;20234;-73
2021/11/28 06:54:36;;;;;;;0.00;0.00;;;;;;;;;;5071200;28;20690;-73
2021/11/28 06:57:05;;;;;;;0.00;0.00;;;;;;;;;;5071686;28;20203;-74
2021/11/28 06:59:33;;;;;;;0.00;0.00;;;;;;;;;;5070326;28;20191;-73
2021/11/28 07:02:00;;;;;;;0.43;0.43;;;;;;;;;;5068887;28;20234;-74
2021/11/28 07:04:28;;;;;;;0.00;0.00;;;;;;;;;;5071052;28;20748;-74
2021/11/28 07:06:55;;;;;;;0.00;0.00;;;;;;;;;;5069763;28;20283;-74
2021/11/28 07:09:23;;;;;;;0.00;0.00;;;;;;;;;;5071462;28;20706;-73
2021/11/28 07:11:50;;;;;;;0.00;0.00;;;;;;;;;;5070522;28;21841;-73
2021/11/28 07:14:20;;;;;;;0.00;0.00;;;;;;;;;;5072564;28;20246;-72
2021/11/28 07:16:47;;;;;;;0.00;0.00;;;;;;;;;;5069929;28;20210;-72
2021/11/28 07:19:15;;;;;;;0.00;0.00;;;;;;;;;;5073139;28;21003;-74
2021/11/28 07:21:42;;;;;;;0.00;0.00;;;;;;;;;;5077883;28;20206;-73
2021/11/28 07:24:10;;;;;;;0.00;0.00;;;;;;;;;;5079616;28;20212;-72
2021/11/28 07:26:37;;;;;;;0.00;0.00;;;;;;;;;;5077102;28;20212;-73
2021/11/28 07:29:04;;;;;;;0.00;0.00;;;;;;;;;;5079123;28;20671;-75
2021/11/28 07:31:33;;;;;;;0.00;0.00;;;;;;;;;;5077436;28;20325;-74
2021/11/28 07:34:01;;;;;;;0.00;0.00;;;;;;;;;;5077740;28;20210;-73
2021/11/28 07:36:28;;;;;;;0.00;0.00;;;;;;;;;;5076798;28;20218;-73
2021/11/28 07:38:56;;;;;;;0.30;0.30;;;;;;;;;;5078849;28;20194;-73
2021/11/28 07:41:23;;;;;;;0.00;0.00;;;;;;;;;;5076740;28;20240;-75
2021/11/28 07:43:51;;;;;;;0.00;0.00;;;;;;;;;;5077205;28;20210;-73
2021/11/28 07:46:18;;;;;;;0.00;0.00;;;;;;;;;;5077090;28;20574;-72
2021/11/28 07:48:47;;;;;;;0.00;0.00;;;;;;;;;;5076987;28;20206;-73
2021/11/28 07:51:15;;;;;;;0.00;0.00;;;;;;;;;;5075270;28;20226;-72
2021/11/28 07:53:45;;;;;;;0.00;0.00;;;;;;;;;;5075600;28;20252;-74
2021/11/28 07:56:12;;;;;;;0.00;0.00;;;;;;;;;;5073263;28;20755;-75
2021/11/28 07:58:40;;;;;;;0.00;0.00;;;;;;;;;;5076605;28;20669;-73
2021/11/28 08:01:07;;;;;;;0.00;0.00;;;;;;;;;;5086238;28;20230;-75
2021/11/28 08:03:35;;;;;;;0.00;0.00;;;;;;;;;;5077433;28;20276;-78
2021/11/28 08:06:03;;;;;;;0.00;0.00;;;;;;;;;;5076790;28;20199;-73
2021/11/28 08:08:32;;;;;;;0.00;0.00;;;;;;;;;;5077425;28;20210;-75
2021/11/28 08:11:00;;;;;;;0.00;0.00;;;;;;;;;;5076561;28;20313;-72
2021/11/28 08:13:27;;;;;;;0.00;0.00;;;;;;;;;;5083424;28;20233;-75
2021/11/28 08:15:55;;;;;;;0.00;0.00;;;;;;;;;;5084500;28;20205;-75
2021/11/28 08:18:23;;;;;;;0.00;0.00;;;;;;;;;;5084032;28;20203;-76
2021/11/28 08:20:50;;;;;;;0.00;0.00;;;;;;;;;;5077819;28;21169;-73
2021/11/28 08:23:19;;;;;;;0.00;0.00;;;;;;;;;;5077488;28;20677;-74
2021/11/28 08:25:46;;;;;;;0.00;0.00;;;;;;;;;;5077893;28;20574;-74
2021/11/28 08:28:14;;;;;;;0.00;0.00;;;;;;;;;;5073880;28;20802;-78
2021/11/28 08:30:42;;;;;;;0.00;0.00;;;;;;;;;;5069748;28;20230;-76
2021/11/28 08:33:09;;;;;;;0.00;0.00;;;;;;;;;;5070109;28;20210;-76
2021/11/28 08:35:37;;;;;;;0.00;0.00;;;;;;;;;;5069857;28;20190;-73
2021/11/28 08:38:05;;;;;;;0.00;0.00;;;;;;;;;;5072053;28;20206;-75
2021/11/28 08:40:37;;;;;;;0.00;0.00;;;;;;;;;;5071864;28;20607;-75
2021/11/28 08:43:05;;;;;;;4.17;0.43;;;;;;;;;;5076410;28;20202;-73
2021/11/28 08:45:33;;;;;;;0.00;0.00;;;;;;;;;;5084033;28;20271;-76
2021/11/28 08:48:00;;;;;;;0.23;0.10;;;;;;;;;;5077816;28;20209;-75
2021/11/28 08:50:28;;;;;;;0.00;0.00;;;;;;;;;;5079941;28;20682;-74
2021/11/28 08:52:56;;;;;;;0.00;0.00;;;;;;;;;;5084253;28;20221;-74
2021/11/28 08:55:23;;;;;;;0.00;0.00;;;;;;;;;;5082715;28;20206;-74
2021/11/28 08:57:52;;;;;;;0.00;0.00;;;;;;;;;;5081637;28;20426;-72
2021/11/28 09:00:20;;;;;;;0.33;0.27;;;;;;;;;;5075544;28;20526;-75
2021/11/28 09:02:49;;;;;;;0.00;0.00;;;;;;;;;;5073076;28;20206;-74
2021/11/28 09:05:19;;;;;;;0.00;0.00;;;;;;;;;;5075372;28;20326;-74
2021/11/28 09:07:47;;;;;;;0.07;0.07;;;;;;;;;;5075440;28;20207;-73
2021/11/28 09:10:14;;;;;;;0.00;0.00;;;;;;;;;;5074302;28;20640;-75
2021/11/28 09:12:42;;;;;;;0.00;0.00;;;;;;;;;;5072553;28;20226;-73
2021/11/28 09:15:12;;;;;;;0.00;0.00;;;;;;;;;;5073773;28;20203;-74
2021/11/28 09:17:43;;;;;;;0.00;0.00;;;;;;;;;;5073526;28;20349;-73
2021/11/28 09:20:11;;;;;;;0.30;0.10;;;;;;;;;;5072345;28;20214;-74
2021/11/28 09:25:25;;;;;;;0.00;0.00;;;;;;;;;;5074870;28;20274;-72
2021/11/28 09:27:54;;;;;;;0.00;0.00;;;;;;;;;;5073682;28;20207;-74
2021/11/28 09:30:24;;;;;;;0.30;0.30;;;;;;;;;;5073652;28;20207;-75
2021/11/28 09:32:52;;;;;;;0.00;0.00;;;;;;;;;;5074401;28;20325;-74
2021/11/28 09:35:20;;;;;;;0.53;0.37;;;;;;;;;;5077650;28;20725;-72
2021/11/28 09:37:47;;;;;;;0.00;0.00;;;;;;;;;;5071786;28;20224;-74
2021/11/28 09:40:15;;;;;;;0.00;0.00;;;;;;;;;;5072045;28;20210;-75
2021/11/28 09:42:47;;;;;;;0.00;0.00;;;;;;;;;;5073595;28;20199;-74
2021/11/28 09:45:14;;;;;;;0.00;0.00;;;;;;;;;;5071028;28;20645;-74
2021/11/28 09:47:44;;;;;;;0.00;0.00;;;;;;;;;;5073607;28;20218;-73
2021/11/28 09:50:12;;;;;;;0.00;0.00;;;;;;;;;;5072143;28;20969;-75
2021/11/28 09:52:39;;;;;;;0.00;0.00;;;;;;;;;;5070025;28;20230;-73
2021/11/28 09:55:08;;;;;;;0.00;0.00;;;;;;;;;;5072361;28;20206;-74
2021/11/28 09:57:36;;;;;;;0.00;0.00;;;;;;;;;;5071470;28;20214;-74
2021/11/28 10:00:04;;;;;;;0.00;0.00;;;;;;;;;;5072814;28;20230;-75
2021/11/28 10:02:33;;;;;;;0.00;0.00;;;;;;;;;;5070871;28;20211;-70
2021/11/28 10:05:03;;;;;;;0.00;0.00;;;;;;;;;;5071289;28;20203;-73
2021/11/28 10:07:30;;;;;;;0.00;0.00;;;;;;;;;;5079414;28;20915;-73
2021/11/28 10:09:58;;;;;;;0.20;0.20;;;;;;;;;;5079499;28;20214;-73
2021/11/28 10:12:26;;;;;;;0.00;0.00;;;;;;;;;;5079166;28;20237;-75
2021/11/28 10:14:55;;;;;;;0.97;0.57;;;;;;;;;;5078730;28;20198;-70
2021/11/28 10:17:24;;;;;;;0.00;0.00;;;;;;;;;;5077820;28;20198;-74
2021/11/28 10:19:52;;;;;;;0.00;0.00;;;;;;;;;;5076129;28;20687;-74
2021/11/28 10:22:21;;;;;;;0.40;0.10;;;;;;;;;;5075172;28;20198;-73
2021/11/28 10:24:52;;;;;;;0.00;0.00;;;;;;;;;;5080479;28;20214;-71
2021/11/28 10:27:20;;;;;;;0.00;0.00;;;;;;;;;;5074337;28;20210;-72
2021/11/28 10:29:47;;;;;;;1.23;0.20;;;;;;;;;;5074205;28;20214;-74
2021/11/28 10:32:15;;;;;;;0.00;0.00;;;;;;;;;;5072612;28;20282;-72
2021/11/28 10:34:44;;;;;;;0.00;0.00;;;;;;;;;;5072080;28;20211;-72
2021/11/28 10:37:12;;;;;;;0.00;0.00;;;;;;;;;;5073809;28;20205;-72
2021/11/28 10:39:42;;;;;;;0.00;0.00;;;;;;;;;;5072616;28;21166;-72
2021/11/28 10:42:11;;;;;;;0.00;0.00;;;;;;;;;;5071803;28;20228;-73
2021/11/28 10:44:38;;;;;;;0.00;0.00;;;;;;;;;;5072003;28;20695;-71
2021/11/28 10:47:12;;;;;;;0.00;0.00;;;;;;;;;;5070958;28;20206;-70
2021/11/28 10:49:41;;;;;;;0.00;0.00;;;;;;;;;;5075662;28;20201;-70
2021/11/28 10:52:10;;;;;;;0.00;0.00;;;;;;;;;;5077932;28;20227;-72
2021/11/28 10:54:40;;;;;;;0.00;0.00;;;;;;;;;;5074110;28;20751;-72
2021/11/28 10:57:20;;;;;;;0.00;0.00;;;;;;;;;;5072755;28;20210;-72
2021/11/28 10:59:58;;;;;;;0.00;0.00;;;;;;;;;;5075811;28;20210;-72
2021/11/28 11:02:27;;;;;;;0.00;0.00;;;;;;;;;;5077327;28;20205;-72
2021/11/28 11:04:56;;;;;;;0.00;0.00;;;;;;;;;;5075117;28;20206;-73
2021/11/28 11:07:24;;;;;;;0.00;0.00;;;;;;;;;;5079161;28;20230;-73
2021/11/28 11:09:52;;;;;;;0.00;0.00;;;;;;;;;;5073322;28;20306;-72
2021/11/28 11:12:27;;;;;;;0.00;0.00;;;;;;;;;;5071045;28;20230;-72
2021/11/28 11:14:56;;;;;;;0.00;0.00;;;;;;;;;;5075232;28;20205;-73
2021/11/28 11:17:26;;;;;;;0.00;0.00;;;;;;;;;;5079371;28;20199;-74
2021/11/28 11:19:53;;;;;;;0.00;0.00;;;;;;;;;;5077717;28;20211;-73
2021/11/28 11:22:22;;;;;;;0.00;0.00;;;;;;;;;;5077687;28;20259;-74
2021/11/28 11:24:52;;;;;;;0.00;0.00;;;;;;;;;;5085332;28;20242;-75
2021/11/28 11:27:21;;;;;;;0.00;0.00;;;;;;;;;;5081507;28;20644;-76
2021/11/28 11:29:51;;;;;;;0.00;0.00;;;;;;;;;;5077703;28;20198;-72
2021/11/28 11:32:19;;;;;;;0.00;0.00;;;;;;;;;;5078977;28;20230;-72
2021/11/28 11:34:51;;;;;;;0.00;0.00;;;;;;;;;;5078313;28;20251;-74
2021/11/28 11:37:19;;;;;;;0.00;0.00;;;;;;;;;;5076387;28;20198;-71
2021/11/28 11:39:47;;;;;;;0.00;0.00;;;;;;;;;;5078747;28;20229;-74
2021/11/28 11:42:16;;;;;;;0.00;0.00;;;;;;;;;;5079332;28;20209;-74
2021/11/28 11:44:44;;;;;;;0.00;0.00;;;;;;;;;;5078557;28;20203;-74
2021/11/28 11:47:13;;;;;;;0.00;0.00;;;;;;;;;;5079643;28;20209;-73
2021/11/28 11:49:42;;;;;;;0.00;0.00;;;;;;;;;;5079324;28;20211;-75
2021/11/28 11:52:10;;;;;;;0.00;0.00;;;;;;;;;;5086141;28;20229;-73
2021/11/28 11:54:42;;;;;;;0.00;0.00;;;;;;;;;;5079795;28;20194;-73
2021/11/28 11:57:12;;;;;;;0.10;0.10;;;;;;;;;;5079317;28;20624;-72
2021/11/28 11:59:44;;;;;;;0.00;0.00;;;;;;;;;;5074905;28;20643;-73
2021/11/28 12:02:11;;;;;;;0.00;0.00;;;;;;;;;;5077501;28;20782;-73
2021/11/28 12:04:41;;;;;;;0.00;0.00;;;;;;;;;;5074621;28;20209;-73
2021/11/28 12:07:09;;;;;;;0.00;0.00;;;;;;;;;;5072523;28;20206;-75
2021/11/28 12:09:37;;;;;;;0.00;0.00;;;;;;;;;;5075204;28;20548;-75
2021/11/28 12:12:06;;;;;;;0.00;0.00;;;;;;;;;;5076549;28;20226;-76
2021/11/28 12:14:34;;;;;;;0.00;0.00;;;;;;;;;;5075535;28;20198;-74
2021/11/28 12:17:01;;;;;;;0.00;0.00;;;;;;;;;;5076743;28;20564;-72
2021/11/28 12:22:44;;;;;;;0.00;0.00;;;;;;;;;;5054251;27;20627;-73
2021/11/28 12:25:30;;;;;;;0.00;0.00;;;;;;;;;;5053746;28;20215;-70
2021/11/28 12:27:58;;;;;;;0.00;0.00;;;;;;;;;;5054037;28;20211;-73
2021/11/28 12:30:38;;;;;;;0.03;0.03;;;;;;;;;;5054304;28;20211;-71
2021/11/28 12:33:06;;;;;;;0.00;0.00;;;;;;;;;;5052496;28;20203;-77
2021/11/28 12:35:38;;;;;;;0.00;0.00;;;;;;;;;;5050048;28;20213;-72
2021/11/28 12:38:06;;;;;;;0.00;0.00;;;;;;;;;;5056308;28;20208;-73
2021/11/28 12:40:34;;;;;;;0.00;0.00;;;;;;;;;;5053837;28;20254;-76
2021/11/28 12:43:17;;;;;;;0.00;0.00;;;;;;;;;;5055028;28;20212;-72
2021/11/28 12:45:45;;;;;;;0.00;0.00;;;;;;;;;;5052081;28;20207;-73
2021/11/28 12:48:13;;;;;;;0.00;0.00;;;;;;;;;;5046931;28;20692;-74
2021/11/28 12:50:55;;;;;;;0.00;0.00;;;;;;;;;;5045333;28;20832;-71
2021/11/28 12:53:32;;;;;;;0.00;0.00;;;;;;;;;;5048105;28;21521;-75
2021/11/28 12:56:20;;;;;;;0.00;0.00;;;;;;;;;;5051209;28;20286;-72
2021/11/28 12:59:06;;;;;;;0.00;0.00;;;;;;;;;;5048705;28;20203;-74
2021/11/28 13:01:48;;;;;;;0.00;0.00;;;;;;;;;;5047408;28;20230;-72
2021/11/28 13:04:30;;;;;;;0.00;0.00;;;;;;;;;;5044581;28;20200;-73
2021/11/28 13:07:13;;;;;;;0.23;0.23;;;;;;;;;;5044266;28;20219;-71
2021/11/28 13:09:40;;;;;;;0.00;0.00;;;;;;;;;;5043700;28;20203;-72
2021/11/28 13:12:08;;;;;;;0.00;0.00;;;;;;;;;;5045096;28;20213;-74
2021/11/28 13:14:36;;;;;;;0.10;0.10;;;;;;;;;;5044317;28;20239;-74
2021/11/28 13:17:05;;;;;;;0.00;0.00;;;;;;;;;;5045637;28;20207;-73
2021/11/28 13:19:34;;;;;;;0.00;0.00;;;;;;;;;;5047697;28;20244;-73
2021/11/28 13:22:01;;;;;;;0.00;0.00;;;;;;;;;;5045601;28;20238;-74
2021/11/28 13:24:29;;;;;;;0.00;0.00;;;;;;;;;;5046556;28;21004;-74
2021/11/28 13:26:57;;;;;;;0.00;0.00;;;;;;;;;;5046239;28;20619;-72
2021/11/28 13:29:26;;;;;;;0.00;0.00;;;;;;;;;;5046097;28;20208;-75
2021/11/28 13:31:59;;;;;;;0.00;0.00;;;;;;;;;;5042287;28;20202;-75
2021/11/28 13:34:32;;;;;;;0.00;0.00;;;;;;;;;;5030001;28;20318;-73
2021/11/28 13:36:59;;;;;;;0.00;0.00;;;;;;;;;;5028443;28;20204;-72
2021/11/28 13:39:27;;;;;;;0.00;0.00;;;;;;;;;;5029411;28;20211;-73
2021/11/28 13:41:55;;;;;;;0.00;0.00;;;;;;;;;;5032140;28;20279;-75
2021/11/28 13:44:24;;;;;;;0.00;0.00;;;;;;;;;;5031805;28;20212;-71
2021/11/28 13:46:52;;;;;;;0.00;0.00;;;;;;;;;;5031414;28;20211;-74
2021/11/28 13:49:21;;;;;;;0.00;0.00;;;;;;;;;;5029808;28;20884;-74
2021/11/28 13:51:51;;;;;;;0.00;0.00;;;;;;;;;;5029813;28;20207;-74
2021/11/28 13:54:20;;;;;;;0.00;0.00;;;;;;;;;;5034243;28;20208;-74
2021/11/28 13:56:49;;;;;;;0.00;0.00;;;;;;;;;;5032494;28;20216;-72
2021/11/28 13:59:17;;;;;;;0.00;0.00;;;;;;;;;;5028301;28;20291;-74
2021/11/28 14:01:45;;;;;;;0.00;0.00;;;;;;;;;;5029704;28;20239;-75
2021/11/28 14:04:23;;;;;;;0.00;0.00;;;;;;;;;;5030798;28;20233;-76
2021/11/28 14:06:52;;;;;;;0.00;0.00;;;;;;;;;;5036228;28;20922;-76
2021/11/28 14:09:21;;;;;;;0.00;0.00;;;;;;;;;;5030832;28;20975;-74
2021/11/28 14:11:52;;;;;;;0.00;0.00;;;;;;;;;;5029807;28;20207;-75
2021/11/28 14:14:20;;;;;;;0.00;0.00;;;;;;;;;;5026823;28;20636;-75
2021/11/28 14:16:50;;;;;;;0.00;0.00;;;;;;;;;;5032910;28;20214;-75
2021/11/28 14:19:29;;;;;;;0.00;0.00;;;;;;;;;;5033070;28;20746;-74
2021/11/28 14:21:58;;;;;;;0.00;0.00;;;;;;;;;;5029307;28;20240;-76
2021/11/28 14:24:28;;;;;;;0.00;0.00;;;;;;;;;;5027860;28;20397;-74
2021/11/28 14:26:56;;;;;;;0.00;0.00;;;;;;;;;;5037654;28;20210;-74
2021/11/28 14:29:24;;;;;;;0.00;0.00;;;;;;;;;;5030267;28;20643;-75
2021/11/28 14:31:58;;;;;;;0.00;0.00;;;;;;;;;;5029690;28;20657;-73
2021/11/28 14:34:26;;;;;;;0.00;0.00;;;;;;;;;;5030112;28;20203;-75
2021/11/28 14:36:53;;;;;;;0.00;0.00;;;;;;;;;;5027798;28;20210;-75
2021/11/28 14:39:35;;;;;;;0.00;0.00;;;;;;;;;;5031474;28;22281;-73
2021/11/28 14:42:12;;;;;;;0.00;0.00;;;;;;;;;;5029546;28;20318;-72
2021/11/28 14:44:43;;;;;;;0.00;0.00;;;;;;;;;;5029879;28;20290;-72
2021/11/28 14:47:20;;;;;;;0.00;0.00;;;;;;;;;;5030311;28;20215;-75
2021/11/28 14:49:48;;;;;;;0.00;0.00;;;;;;;;;;5030531;28;20210;-75
2021/11/28 14:52:15;;;;;;;0.00;0.00;;;;;;;;;;5030215;28;20227;-77
2021/11/28 14:54:44;;;;;;;0.00;0.00;;;;;;;;;;5032322;28;20904;-71
2021/11/28 14:57:13;;;;;;;0.00;0.00;;;;;;;;;;5033783;28;20280;-72
2021/11/28 14:59:42;;;;;;;0.00;0.00;;;;;;;;;;5033967;28;20214;-73